sensor_id;sensor_type;location;lat;lon;timestamp;P1;durP1;ratioP1;P2;durP2;ratioP2
9288;SDS011;4683;50.864;12.086;2022-07-29T00:15:32;2.40;;;1.80;;
9288;SDS011;4683;50.864;12.086;2022-07-29T00:18:00;3.37;;;1.47;;
9288;SDS011;4683;50.864;12.086;2022-07-29T00:20:29;2.60;;;1.33;;
9288;SDS011;4683;50.864;12.086;2022-07-29T00:22:57;3.63;;;1.60;;
9288;SDS011;4683;50.864;12.086;2022-07-29T00:25:29;2.13;;;1.73;;
9288;SDS011;4683;50.864;12.086;2022-07-29T00:27:58;3.93;;;1.87;;
9288;SDS011;4683;50.864;12.086;2022-07-29T00:30:26;2.80;;;1.70;;
9288;SDS011;4683;50.864;12.086;2022-07-29T00:32:56;2.23;;;1.73;;
9288;SDS011;4683;50.864;12.086;2022-07-29T00:35:26;3.33;;;1.70;;
9288;SDS011;4683;50.864;12.086;2022-07-29T00:38:13;2.53;;;1.63;;
9288;SDS011;4683;50.864;12.086;2022-07-29T00:40:44;3.97;;;1.90;;
9288;SDS011;4683;50.864;12.086;2022-07-29T00:47:21;2.83;;;1.67;;
9288;SDS011;4683;50.864;12.086;2022-07-29T00:49:51;2.47;;;1.97;;
9288;SDS011;4683;50.864;12.086;2022-07-29T00:52:19;4.97;;;1.30;;
9288;SDS011;4683;50.864;12.086;2022-07-29T00:54:49;3.97;;;1.83;;
9288;SDS011;4683;50.864;12.086;2022-07-29T00:57:17;6.97;;;2.13;;
9288;SDS011;4683;50.864;12.086;2022-07-29T00:59:47;4.27;;;1.90;;
9288;SDS011;4683;50.864;12.086;2022-07-29T01:02:15;4.97;;;2.13;;
9288;SDS011;4683;50.864;12.086;2022-07-29T01:04:44;4.50;;;2.00;;
9288;SDS011;4683;50.864;12.086;2022-07-29T01:07:14;2.47;;;1.70;;
9288;SDS011;4683;50.864;12.086;2022-07-29T01:09:43;4.37;;;1.93;;
9288;SDS011;4683;50.864;12.086;2022-07-29T01:12:13;2.63;;;1.70;;
9288;SDS011;4683;50.864;12.086;2022-07-29T01:14:46;3.13;;;1.80;;
9288;SDS011;4683;50.864;12.086;2022-07-29T01:17:18;1.83;;;1.50;;
9288;SDS011;4683;50.864;12.086;2022-07-29T01:19:53;2.77;;;1.73;;
9288;SDS011;4683;50.864;12.086;2022-07-29T01:22:41;4.93;;;1.97;;
9288;SDS011;4683;50.864;12.086;2022-07-29T01:25:54;4.00;;;1.67;;
9288;SDS011;4683;50.864;12.086;2022-07-29T01:31:47;5.63;;;2.17;;
9288;SDS011;4683;50.864;12.086;2022-07-29T01:34:21;4.10;;;1.70;;
9288;SDS011;4683;50.864;12.086;2022-07-29T01:36:58;4.73;;;1.93;;
9288;SDS011;4683;50.864;12.086;2022-07-29T01:39:35;3.63;;;1.60;;
9288;SDS011;4683;50.864;12.086;2022-07-29T01:42:10;3.53;;;2.10;;
9288;SDS011;4683;50.864;12.086;2022-07-29T01:44:50;7.00;;;1.83;;
9288;SDS011;4683;50.864;12.086;2022-07-29T01:47:26;2.60;;;1.63;;
9288;SDS011;4683;50.864;12.086;2022-07-29T01:50:02;3.50;;;1.90;;
9288;SDS011;4683;50.864;12.086;2022-07-29T01:56:35;2.87;;;2.10;;
9288;SDS011;4683;50.864;12.086;2022-07-29T01:59:07;3.67;;;2.03;;
9288;SDS011;4683;50.864;12.086;2022-07-29T02:01:39;3.73;;;2.00;;
9288;SDS011;4683;50.864;12.086;2022-07-29T02:04:10;4.10;;;2.10;;
9288;SDS011;4683;50.864;12.086;2022-07-29T02:06:40;6.50;;;1.90;;
9288;SDS011;4683;50.864;12.086;2022-07-29T02:09:11;3.70;;;2.00;;
9288;SDS011;4683;50.864;12.086;2022-07-29T02:11:42;3.83;;;1.70;;
9288;SDS011;4683;50.864;12.086;2022-07-29T02:14:20;3.03;;;1.87;;
9288;SDS011;4683;50.864;12.086;2022-07-29T02:16:52;3.60;;;1.90;;
9288;SDS011;4683;50.864;12.086;2022-07-29T02:19:23;3.93;;;1.73;;
9288;SDS011;4683;50.864;12.086;2022-07-29T02:21:53;3.73;;;2.00;;
9288;SDS011;4683;50.864;12.086;2022-07-29T02:24:25;3.23;;;1.93;;
9288;SDS011;4683;50.864;12.086;2022-07-29T02:26:55;4.77;;;2.30;;
9288;SDS011;4683;50.864;12.086;2022-07-29T02:29:25;9.30;;;2.10;;
9288;SDS011;4683;50.864;12.086;2022-07-29T02:31:58;3.87;;;1.90;;
9288;SDS011;4683;50.864;12.086;2022-07-29T02:34:28;4.03;;;1.90;;
9288;SDS011;4683;50.864;12.086;2022-07-29T02:36:59;2.67;;;1.70;;
9288;SDS011;4683;50.864;12.086;2022-07-29T02:39:28;2.47;;;1.80;;
9288;SDS011;4683;50.864;12.086;2022-07-29T02:41:59;4.10;;;2.17;;
9288;SDS011;4683;50.864;12.086;2022-07-29T02:44:33;4.20;;;2.17;;
9288;SDS011;4683;50.864;12.086;2022-07-29T02:47:04;3.23;;;1.63;;
9288;SDS011;4683;50.864;12.086;2022-07-29T02:49:43;4.23;;;1.87;;
9288;SDS011;4683;50.864;12.086;2022-07-29T02:52:20;3.20;;;1.73;;
9288;SDS011;4683;50.864;12.086;2022-07-29T02:54:55;2.40;;;2.13;;
9288;SDS011;4683;50.864;12.086;2022-07-29T02:57:29;3.63;;;2.17;;
9288;SDS011;4683;50.864;12.086;2022-07-29T03:00:03;2.63;;;1.50;;
9288;SDS011;4683;50.864;12.086;2022-07-29T03:02:40;4.07;;;2.37;;
9288;SDS011;4683;50.864;12.086;2022-07-29T03:05:15;5.00;;;1.90;;
9288;SDS011;4683;50.864;12.086;2022-07-29T03:07:49;2.77;;;1.80;;
9288;SDS011;4683;50.864;12.086;2022-07-29T03:10:23;3.43;;;2.10;;
9288;SDS011;4683;50.864;12.086;2022-07-29T03:12:57;3.97;;;1.97;;
9288;SDS011;4683;50.864;12.086;2022-07-29T03:15:27;2.37;;;1.70;;
9288;SDS011;4683;50.864;12.086;2022-07-29T03:17:57;3.43;;;1.90;;
9288;SDS011;4683;50.864;12.086;2022-07-29T03:20:27;2.73;;;1.57;;
9288;SDS011;4683;50.864;12.086;2022-07-29T03:22:56;4.30;;;2.10;;
9288;SDS011;4683;50.864;12.086;2022-07-29T03:25:24;2.80;;;1.90;;
9288;SDS011;4683;50.864;12.086;2022-07-29T03:27:53;3.37;;;2.40;;
9288;SDS011;4683;50.864;12.086;2022-07-29T03:30:22;3.10;;;2.00;;
9288;SDS011;4683;50.864;12.086;2022-07-29T03:32:52;5.10;;;1.93;;
9288;SDS011;4683;50.864;12.086;2022-07-29T03:35:22;4.43;;;2.07;;
9288;SDS011;4683;50.864;12.086;2022-07-29T03:37:50;5.37;;;1.80;;
9288;SDS011;4683;50.864;12.086;2022-07-29T03:40:21;6.03;;;2.33;;
9288;SDS011;4683;50.864;12.086;2022-07-29T03:42:54;3.53;;;1.90;;
9288;SDS011;4683;50.864;12.086;2022-07-29T03:45:23;3.83;;;2.10;;
9288;SDS011;4683;50.864;12.086;2022-07-29T03:47:54;4.17;;;2.30;;
9288;SDS011;4683;50.864;12.086;2022-07-29T03:50:30;2.83;;;1.90;;
9288;SDS011;4683;50.864;12.086;2022-07-29T03:53:00;2.63;;;1.80;;
9288;SDS011;4683;50.864;12.086;2022-07-29T03:55:29;2.20;;;2.00;;
9288;SDS011;4683;50.864;12.086;2022-07-29T03:58:03;2.33;;;2.07;;
9288;SDS011;4683;50.864;12.086;2022-07-29T04:00:33;3.07;;;2.00;;
9288;SDS011;4683;50.864;12.086;2022-07-29T04:03:05;2.77;;;2.07;;
9288;SDS011;4683;50.864;12.086;2022-07-29T04:05:36;5.17;;;2.00;;
9288;SDS011;4683;50.864;12.086;2022-07-29T04:08:05;4.93;;;2.10;;
9288;SDS011;4683;50.864;12.086;2022-07-29T04:10:33;5.40;;;1.90;;
9288;SDS011;4683;50.864;12.086;2022-07-29T04:13:05;3.30;;;2.17;;
9288;SDS011;4683;50.864;12.086;2022-07-29T04:15:33;2.70;;;2.10;;
9288;SDS011;4683;50.864;12.086;2022-07-29T04:18:01;3.90;;;2.40;;
9288;SDS011;4683;50.864;12.086;2022-07-29T04:20:29;4.03;;;2.20;;
9288;SDS011;4683;50.864;12.086;2022-07-29T04:22:59;5.67;;;2.40;;
9288;SDS011;4683;50.864;12.086;2022-07-29T04:25:32;3.47;;;2.23;;
9288;SDS011;4683;50.864;12.086;2022-07-29T04:28:03;5.90;;;2.53;;
9288;SDS011;4683;50.864;12.086;2022-07-29T04:30:32;2.77;;;2.27;;
9288;SDS011;4683;50.864;12.086;2022-07-29T04:33:03;5.23;;;2.40;;
9288;SDS011;4683;50.864;12.086;2022-07-29T04:35:34;7.27;;;2.70;;
9288;SDS011;4683;50.864;12.086;2022-07-29T04:38:06;4.07;;;2.50;;
9288;SDS011;4683;50.864;12.086;2022-07-29T04:40:34;4.17;;;2.40;;
9288;SDS011;4683;50.864;12.086;2022-07-29T04:43:03;5.23;;;2.77;;
9288;SDS011;4683;50.864;12.086;2022-07-29T04:45:31;8.60;;;3.00;;
9288;SDS011;4683;50.864;12.086;2022-07-29T04:48:00;5.53;;;2.60;;
9288;SDS011;4683;50.864;12.086;2022-07-29T04:50:29;5.53;;;2.70;;
9288;SDS011;4683;50.864;12.086;2022-07-29T04:52:58;6.30;;;2.70;;
9288;SDS011;4683;50.864;12.086;2022-07-29T04:55:28;5.80;;;2.67;;
9288;SDS011;4683;50.864;12.086;2022-07-29T04:57:56;3.70;;;2.67;;
9288;SDS011;4683;50.864;12.086;2022-07-29T05:00:25;4.83;;;2.70;;
9288;SDS011;4683;50.864;12.086;2022-07-29T05:02:53;5.57;;;2.80;;
9288;SDS011;4683;50.864;12.086;2022-07-29T05:05:22;4.57;;;2.80;;
9288;SDS011;4683;50.864;12.086;2022-07-29T05:07:52;7.83;;;3.27;;
9288;SDS011;4683;50.864;12.086;2022-07-29T05:10:23;3.87;;;2.57;;
9288;SDS011;4683;50.864;12.086;2022-07-29T05:12:53;3.30;;;2.57;;
9288;SDS011;4683;50.864;12.086;2022-07-29T05:15:21;5.90;;;2.80;;
9288;SDS011;4683;50.864;12.086;2022-07-29T05:17:49;4.20;;;2.70;;
9288;SDS011;4683;50.864;12.086;2022-07-29T05:20:18;4.80;;;2.60;;
9288;SDS011;4683;50.864;12.086;2022-07-29T05:22:51;4.23;;;2.27;;
9288;SDS011;4683;50.864;12.086;2022-07-29T05:25:19;4.40;;;2.77;;
9288;SDS011;4683;50.864;12.086;2022-07-29T05:27:53;7.30;;;2.70;;
9288;SDS011;4683;50.864;12.086;2022-07-29T05:30:21;4.33;;;2.50;;
9288;SDS011;4683;50.864;12.086;2022-07-29T05:32:50;6.20;;;2.73;;
9288;SDS011;4683;50.864;12.086;2022-07-29T05:35:20;6.93;;;2.70;;
9288;SDS011;4683;50.864;12.086;2022-07-29T05:37:48;8.73;;;2.93;;
9288;SDS011;4683;50.864;12.086;2022-07-29T05:40:19;5.17;;;2.60;;
9288;SDS011;4683;50.864;12.086;2022-07-29T05:46:30;8.63;;;2.90;;
9288;SDS011;4683;50.864;12.086;2022-07-29T05:48:59;6.03;;;2.63;;
9288;SDS011;4683;50.864;12.086;2022-07-29T05:51:28;10.57;;;3.10;;
9288;SDS011;4683;50.864;12.086;2022-07-29T05:53:56;5.60;;;2.60;;
9288;SDS011;4683;50.864;12.086;2022-07-29T05:56:29;5.50;;;3.17;;
9288;SDS011;4683;50.864;12.086;2022-07-29T05:58:59;6.07;;;2.67;;
9288;SDS011;4683;50.864;12.086;2022-07-29T06:01:27;5.13;;;3.33;;
9288;SDS011;4683;50.864;12.086;2022-07-29T06:03:57;5.17;;;2.90;;
9288;SDS011;4683;50.864;12.086;2022-07-29T06:06:26;4.60;;;2.90;;
9288;SDS011;4683;50.864;12.086;2022-07-29T06:08:55;6.37;;;2.70;;
9288;SDS011;4683;50.864;12.086;2022-07-29T06:11:23;7.03;;;3.37;;
9288;SDS011;4683;50.864;12.086;2022-07-29T06:13:52;6.50;;;3.00;;
9288;SDS011;4683;50.864;12.086;2022-07-29T06:16:21;8.67;;;3.40;;
9288;SDS011;4683;50.864;12.086;2022-07-29T06:18:51;6.30;;;3.03;;
9288;SDS011;4683;50.864;12.086;2022-07-29T06:21:19;7.13;;;2.90;;
9288;SDS011;4683;50.864;12.086;2022-07-29T06:23:47;6.43;;;3.27;;
9288;SDS011;4683;50.864;12.086;2022-07-29T06:26:16;7.97;;;3.30;;
9288;SDS011;4683;50.864;12.086;2022-07-29T06:28:45;6.10;;;3.13;;
9288;SDS011;4683;50.864;12.086;2022-07-29T06:31:13;6.30;;;3.10;;
9288;SDS011;4683;50.864;12.086;2022-07-29T06:33:42;6.83;;;3.13;;
9288;SDS011;4683;50.864;12.086;2022-07-29T06:36:12;12.13;;;3.20;;
9288;SDS011;4683;50.864;12.086;2022-07-29T06:38:41;7.03;;;3.10;;
9288;SDS011;4683;50.864;12.086;2022-07-29T06:41:10;7.40;;;3.63;;
9288;SDS011;4683;50.864;12.086;2022-07-29T06:43:42;6.67;;;3.00;;
9288;SDS011;4683;50.864;12.086;2022-07-29T06:46:12;4.63;;;2.97;;
9288;SDS011;4683;50.864;12.086;2022-07-29T06:48:43;6.13;;;2.90;;
9288;SDS011;4683;50.864;12.086;2022-07-29T06:51:16;5.80;;;3.10;;
9288;SDS011;4683;50.864;12.086;2022-07-29T06:53:45;4.83;;;3.23;;
9288;SDS011;4683;50.864;12.086;2022-07-29T06:56:14;8.90;;;3.27;;
9288;SDS011;4683;50.864;12.086;2022-07-29T06:58:43;8.83;;;3.57;;
9288;SDS011;4683;50.864;12.086;2022-07-29T07:01:12;9.90;;;3.70;;
9288;SDS011;4683;50.864;12.086;2022-07-29T07:03:41;7.40;;;3.67;;
9288;SDS011;4683;50.864;12.086;2022-07-29T07:06:10;4.67;;;3.17;;
9288;SDS011;4683;50.864;12.086;2022-07-29T07:08:40;4.97;;;3.47;;
9288;SDS011;4683;50.864;12.086;2022-07-29T07:11:10;6.83;;;3.10;;
9288;SDS011;4683;50.864;12.086;2022-07-29T07:13:39;5.77;;;3.10;;
9288;SDS011;4683;50.864;12.086;2022-07-29T07:16:08;7.97;;;3.73;;
9288;SDS011;4683;50.864;12.086;2022-07-29T07:18:37;6.57;;;3.20;;
9288;SDS011;4683;50.864;12.086;2022-07-29T07:21:08;6.80;;;3.47;;
9288;SDS011;4683;50.864;12.086;2022-07-29T07:23:37;6.40;;;3.40;;
9288;SDS011;4683;50.864;12.086;2022-07-29T07:26:07;6.37;;;3.57;;
9288;SDS011;4683;50.864;12.086;2022-07-29T07:28:37;8.43;;;3.30;;
9288;SDS011;4683;50.864;12.086;2022-07-29T07:31:07;10.07;;;3.50;;
9288;SDS011;4683;50.864;12.086;2022-07-29T07:33:52;7.13;;;3.40;;
9288;SDS011;4683;50.864;12.086;2022-07-29T07:36:22;5.23;;;3.47;;
9288;SDS011;4683;50.864;12.086;2022-07-29T07:38:53;6.10;;;3.40;;
9288;SDS011;4683;50.864;12.086;2022-07-29T07:41:26;5.57;;;3.47;;
9288;SDS011;4683;50.864;12.086;2022-07-29T07:43:54;6.80;;;3.20;;
9288;SDS011;4683;50.864;12.086;2022-07-29T07:46:23;8.27;;;3.90;;
9288;SDS011;4683;50.864;12.086;2022-07-29T07:48:52;5.83;;;3.87;;
9288;SDS011;4683;50.864;12.086;2022-07-29T07:51:20;4.17;;;3.10;;
9288;SDS011;4683;50.864;12.086;2022-07-29T07:53:49;5.20;;;3.20;;
9288;SDS011;4683;50.864;12.086;2022-07-29T07:56:17;4.83;;;3.53;;
9288;SDS011;4683;50.864;12.086;2022-07-29T07:58:49;5.40;;;3.70;;
9288;SDS011;4683;50.864;12.086;2022-07-29T08:01:17;5.43;;;3.30;;
9288;SDS011;4683;50.864;12.086;2022-07-29T08:03:50;7.90;;;3.27;;
9288;SDS011;4683;50.864;12.086;2022-07-29T08:06:20;4.87;;;3.30;;
9288;SDS011;4683;50.864;12.086;2022-07-29T08:08:50;5.23;;;3.83;;
9288;SDS011;4683;50.864;12.086;2022-07-29T08:11:18;6.20;;;3.50;;
9288;SDS011;4683;50.864;12.086;2022-07-29T08:13:51;6.07;;;3.10;;
9288;SDS011;4683;50.864;12.086;2022-07-29T08:16:25;6.47;;;4.30;;
9288;SDS011;4683;50.864;12.086;2022-07-29T08:19:03;7.00;;;3.93;;
9288;SDS011;4683;50.864;12.086;2022-07-29T08:21:33;4.83;;;3.33;;
9288;SDS011;4683;50.864;12.086;2022-07-29T08:24:01;4.67;;;3.50;;
9288;SDS011;4683;50.864;12.086;2022-07-29T08:26:49;7.23;;;3.70;;
9288;SDS011;4683;50.864;12.086;2022-07-29T08:29:21;4.73;;;3.47;;
9288;SDS011;4683;50.864;12.086;2022-07-29T08:31:54;4.87;;;3.00;;
9288;SDS011;4683;50.864;12.086;2022-07-29T08:34:27;5.10;;;3.20;;
9288;SDS011;4683;50.864;12.086;2022-07-29T08:37:00;4.07;;;3.20;;
9288;SDS011;4683;50.864;12.086;2022-07-29T08:39:29;6.80;;;3.30;;
9288;SDS011;4683;50.864;12.086;2022-07-29T08:41:58;3.53;;;3.23;;
9288;SDS011;4683;50.864;12.086;2022-07-29T08:44:27;4.90;;;3.20;;
9288;SDS011;4683;50.864;12.086;2022-07-29T08:46:58;3.70;;;3.37;;
9288;SDS011;4683;50.864;12.086;2022-07-29T08:49:27;7.40;;;3.23;;
9288;SDS011;4683;50.864;12.086;2022-07-29T08:51:55;4.70;;;3.00;;
9288;SDS011;4683;50.864;12.086;2022-07-29T08:54:26;5.23;;;3.60;;
9288;SDS011;4683;50.864;12.086;2022-07-29T08:56:56;8.17;;;3.37;;
9288;SDS011;4683;50.864;12.086;2022-07-29T08:59:28;7.63;;;3.60;;
9288;SDS011;4683;50.864;12.086;2022-07-29T09:02:00;6.37;;;3.00;;
9288;SDS011;4683;50.864;12.086;2022-07-29T09:04:30;6.43;;;3.50;;
9288;SDS011;4683;50.864;12.086;2022-07-29T09:07:03;8.90;;;3.60;;
9288;SDS011;4683;50.864;12.086;2022-07-29T09:09:33;7.07;;;3.70;;
9288;SDS011;4683;50.864;12.086;2022-07-29T09:12:03;6.10;;;3.77;;
9288;SDS011;4683;50.864;12.086;2022-07-29T09:14:36;7.10;;;3.33;;
9288;SDS011;4683;50.864;12.086;2022-07-29T09:17:05;10.07;;;3.40;;
9288;SDS011;4683;50.864;12.086;2022-07-29T09:19:36;7.03;;;3.17;;
9288;SDS011;4683;50.864;12.086;2022-07-29T09:22:07;9.97;;;3.40;;
9288;SDS011;4683;50.864;12.086;2022-07-29T09:24:42;9.23;;;3.60;;
9288;SDS011;4683;50.864;12.086;2022-07-29T09:27:22;9.57;;;3.00;;
9288;SDS011;4683;50.864;12.086;2022-07-29T09:29:58;8.20;;;3.43;;
9288;SDS011;4683;50.864;12.086;2022-07-29T09:32:29;7.27;;;3.50;;
9288;SDS011;4683;50.864;12.086;2022-07-29T09:35:16;7.23;;;3.13;;
9288;SDS011;4683;50.864;12.086;2022-07-29T09:37:46;9.43;;;3.50;;
9288;SDS011;4683;50.864;12.086;2022-07-29T09:40:20;6.13;;;3.33;;
9288;SDS011;4683;50.864;12.086;2022-07-29T09:42:50;5.87;;;3.33;;
9288;SDS011;4683;50.864;12.086;2022-07-29T09:45:28;5.33;;;3.10;;
9288;SDS011;4683;50.864;12.086;2022-07-29T09:47:58;5.00;;;3.27;;
9288;SDS011;4683;50.864;12.086;2022-07-29T09:50:46;5.50;;;3.00;;
9288;SDS011;4683;50.864;12.086;2022-07-29T09:53:33;5.87;;;3.10;;
9288;SDS011;4683;50.864;12.086;2022-07-29T09:56:06;4.77;;;3.07;;
9288;SDS011;4683;50.864;12.086;2022-07-29T09:58:36;4.60;;;3.10;;
9288;SDS011;4683;50.864;12.086;2022-07-29T10:01:06;6.47;;;3.27;;
9288;SDS011;4683;50.864;12.086;2022-07-29T10:03:50;5.83;;;3.03;;
9288;SDS011;4683;50.864;12.086;2022-07-29T10:06:19;4.40;;;3.37;;
9288;SDS011;4683;50.864;12.086;2022-07-29T10:08:47;4.33;;;3.10;;
9288;SDS011;4683;50.864;12.086;2022-07-29T10:11:17;5.23;;;3.13;;
9288;SDS011;4683;50.864;12.086;2022-07-29T10:13:47;6.13;;;3.90;;
9288;SDS011;4683;50.864;12.086;2022-07-29T10:16:18;4.83;;;3.30;;
9288;SDS011;4683;50.864;12.086;2022-07-29T10:18:47;4.57;;;4.00;;
9288;SDS011;4683;50.864;12.086;2022-07-29T10:21:16;6.07;;;3.90;;
9288;SDS011;4683;50.864;12.086;2022-07-29T10:23:45;4.10;;;3.57;;
9288;SDS011;4683;50.864;12.086;2022-07-29T10:26:14;8.07;;;3.93;;
9288;SDS011;4683;50.864;12.086;2022-07-29T10:28:49;9.03;;;3.60;;
9288;SDS011;4683;50.864;12.086;2022-07-29T10:31:25;5.63;;;3.70;;
9288;SDS011;4683;50.864;12.086;2022-07-29T10:34:06;4.87;;;3.70;;
9288;SDS011;4683;50.864;12.086;2022-07-29T10:36:47;8.13;;;4.53;;
9288;SDS011;4683;50.864;12.086;2022-07-29T10:39:27;5.60;;;3.63;;
9288;SDS011;4683;50.864;12.086;2022-07-29T10:42:15;4.40;;;4.00;;
9288;SDS011;4683;50.864;12.086;2022-07-29T10:44:48;5.23;;;3.80;;
9288;SDS011;4683;50.864;12.086;2022-07-29T10:47:24;7.27;;;4.10;;
9288;SDS011;4683;50.864;12.086;2022-07-29T10:49:56;3.83;;;3.40;;
9288;SDS011;4683;50.864;12.086;2022-07-29T10:55:35;5.63;;;3.87;;
9288;SDS011;4683;50.864;12.086;2022-07-29T10:58:29;5.83;;;4.00;;
9288;SDS011;4683;50.864;12.086;2022-07-29T11:00:58;8.47;;;3.97;;
9288;SDS011;4683;50.864;12.086;2022-07-29T11:03:59;6.57;;;4.00;;
9288;SDS011;4683;50.864;12.086;2022-07-29T11:06:41;4.97;;;3.63;;
9288;SDS011;4683;50.864;12.086;2022-07-29T11:09:38;4.53;;;3.80;;
9288;SDS011;4683;50.864;12.086;2022-07-29T11:15:18;4.87;;;3.60;;
9288;SDS011;4683;50.864;12.086;2022-07-29T11:18:07;6.50;;;4.40;;
9288;SDS011;4683;50.864;12.086;2022-07-29T11:20:41;9.07;;;4.33;;
9288;SDS011;4683;50.864;12.086;2022-07-29T11:23:18;7.53;;;3.77;;
9288;SDS011;4683;50.864;12.086;2022-07-29T11:29:00;6.57;;;3.80;;
9288;SDS011;4683;50.864;12.086;2022-07-29T11:31:34;4.03;;;3.63;;
9288;SDS011;4683;50.864;12.086;2022-07-29T11:34:18;5.60;;;4.43;;
9288;SDS011;4683;50.864;12.086;2022-07-29T11:42:44;5.40;;;4.00;;
9288;SDS011;4683;50.864;12.086;2022-07-29T11:45:18;6.57;;;4.30;;
9288;SDS011;4683;50.864;12.086;2022-07-29T11:47:54;6.80;;;4.17;;
9288;SDS011;4683;50.864;12.086;2022-07-29T11:50:28;5.90;;;3.90;;
9288;SDS011;4683;50.864;12.086;2022-07-29T11:53:02;5.10;;;4.27;;
9288;SDS011;4683;50.864;12.086;2022-07-29T11:55:38;4.93;;;4.33;;
9288;SDS011;4683;50.864;12.086;2022-07-29T11:58:09;5.23;;;4.30;;
9288;SDS011;4683;50.864;12.086;2022-07-29T12:00:38;5.57;;;4.23;;
9288;SDS011;4683;50.864;12.086;2022-07-29T12:03:09;4.70;;;4.10;;
9288;SDS011;4683;50.864;12.086;2022-07-29T12:05:40;4.43;;;3.87;;
9288;SDS011;4683;50.864;12.086;2022-07-29T12:08:13;5.60;;;4.43;;
9288;SDS011;4683;50.864;12.086;2022-07-29T12:10:45;5.47;;;4.17;;
9288;SDS011;4683;50.864;12.086;2022-07-29T12:13:17;8.13;;;4.80;;
9288;SDS011;4683;50.864;12.086;2022-07-29T12:15:54;8.60;;;4.70;;
9288;SDS011;4683;50.864;12.086;2022-07-29T12:18:24;5.27;;;4.73;;
9288;SDS011;4683;50.864;12.086;2022-07-29T12:20:56;5.30;;;4.53;;
9288;SDS011;4683;50.864;12.086;2022-07-29T12:23:30;4.63;;;4.23;;
9288;SDS011;4683;50.864;12.086;2022-07-29T12:25:59;4.87;;;4.17;;
9288;SDS011;4683;50.864;12.086;2022-07-29T12:28:30;5.20;;;4.43;;
9288;SDS011;4683;50.864;12.086;2022-07-29T12:31:05;6.67;;;4.80;;
9288;SDS011;4683;50.864;12.086;2022-07-29T12:33:41;6.07;;;4.53;;
9288;SDS011;4683;50.864;12.086;2022-07-29T12:36:19;6.57;;;4.50;;
9288;SDS011;4683;50.864;12.086;2022-07-29T12:38:49;4.83;;;4.13;;
9288;SDS011;4683;50.864;12.086;2022-07-29T12:41:18;5.63;;;4.13;;
9288;SDS011;4683;50.864;12.086;2022-07-29T12:43:54;4.83;;;4.27;;
9288;SDS011;4683;50.864;12.086;2022-07-29T12:46:23;4.87;;;3.97;;
9288;SDS011;4683;50.864;12.086;2022-07-29T12:48:53;4.87;;;4.07;;
9288;SDS011;4683;50.864;12.086;2022-07-29T12:51:28;4.60;;;4.20;;
9288;SDS011;4683;50.864;12.086;2022-07-29T12:54:07;4.97;;;4.50;;
9288;SDS011;4683;50.864;12.086;2022-07-29T12:56:39;5.70;;;4.50;;
9288;SDS011;4683;50.864;12.086;2022-07-29T12:59:13;8.37;;;4.37;;
9288;SDS011;4683;50.864;12.086;2022-07-29T13:01:45;4.73;;;4.13;;
9288;SDS011;4683;50.864;12.086;2022-07-29T13:04:23;6.63;;;4.33;;
9288;SDS011;4683;50.864;12.086;2022-07-29T13:07:00;4.67;;;4.27;;
9288;SDS011;4683;50.864;12.086;2022-07-29T13:09:40;4.90;;;4.40;;
9288;SDS011;4683;50.864;12.086;2022-07-29T13:12:11;4.93;;;4.30;;
9288;SDS011;4683;50.864;12.086;2022-07-29T13:14:42;6.80;;;4.60;;
9288;SDS011;4683;50.864;12.086;2022-07-29T13:17:24;6.93;;;4.50;;
9288;SDS011;4683;50.864;12.086;2022-07-29T13:20:04;8.07;;;4.70;;
9288;SDS011;4683;50.864;12.086;2022-07-29T13:22:39;4.90;;;4.40;;
9288;SDS011;4683;50.864;12.086;2022-07-29T13:25:23;6.37;;;5.17;;
9288;SDS011;4683;50.864;12.086;2022-07-29T13:28:01;4.50;;;4.13;;
9288;SDS011;4683;50.864;12.086;2022-07-29T13:30:29;5.13;;;4.63;;
9288;SDS011;4683;50.864;12.086;2022-07-29T13:32:58;6.37;;;4.60;;
9288;SDS011;4683;50.864;12.086;2022-07-29T13:35:27;6.00;;;5.40;;
9288;SDS011;4683;50.864;12.086;2022-07-29T13:37:56;5.30;;;4.60;;
9288;SDS011;4683;50.864;12.086;2022-07-29T13:40:26;4.53;;;4.00;;
9288;SDS011;4683;50.864;12.086;2022-07-29T13:42:57;7.40;;;4.57;;
9288;SDS011;4683;50.864;12.086;2022-07-29T13:45:45;7.20;;;4.37;;
9288;SDS011;4683;50.864;12.086;2022-07-29T13:48:15;6.63;;;3.70;;
9288;SDS011;4683;50.864;12.086;2022-07-29T13:50:45;7.20;;;4.30;;
9288;SDS011;4683;50.864;12.086;2022-07-29T13:53:13;5.77;;;4.40;;
9288;SDS011;4683;50.864;12.086;2022-07-29T13:55:45;9.60;;;5.00;;
9288;SDS011;4683;50.864;12.086;2022-07-29T13:58:20;4.50;;;4.10;;
9288;SDS011;4683;50.864;12.086;2022-07-29T14:00:49;6.60;;;5.10;;
9288;SDS011;4683;50.864;12.086;2022-07-29T14:03:19;4.70;;;3.90;;
9288;SDS011;4683;50.864;12.086;2022-07-29T14:05:48;6.67;;;4.63;;
9288;SDS011;4683;50.864;12.086;2022-07-29T14:08:18;5.90;;;4.67;;
9288;SDS011;4683;50.864;12.086;2022-07-29T14:10:49;7.43;;;4.70;;
9288;SDS011;4683;50.864;12.086;2022-07-29T14:13:22;5.87;;;5.07;;
9288;SDS011;4683;50.864;12.086;2022-07-29T14:15:58;5.50;;;4.80;;
9288;SDS011;4683;50.864;12.086;2022-07-29T14:18:27;6.47;;;5.30;;
9288;SDS011;4683;50.864;12.086;2022-07-29T14:20:58;6.30;;;5.57;;
9288;SDS011;4683;50.864;12.086;2022-07-29T14:23:26;6.80;;;5.30;;
9288;SDS011;4683;50.864;12.086;2022-07-29T14:25:57;6.67;;;5.80;;
9288;SDS011;4683;50.864;12.086;2022-07-29T14:28:26;6.63;;;5.47;;
9288;SDS011;4683;50.864;12.086;2022-07-29T14:30:56;6.00;;;5.40;;
9288;SDS011;4683;50.864;12.086;2022-07-29T14:33:24;6.63;;;5.00;;
9288;SDS011;4683;50.864;12.086;2022-07-29T14:35:52;5.43;;;4.93;;
9288;SDS011;4683;50.864;12.086;2022-07-29T14:38:21;5.00;;;4.37;;
9288;SDS011;4683;50.864;12.086;2022-07-29T14:40:50;5.17;;;4.67;;
9288;SDS011;4683;50.864;12.086;2022-07-29T14:43:20;5.43;;;3.90;;
9288;SDS011;4683;50.864;12.086;2022-07-29T14:45:49;8.40;;;5.70;;
9288;SDS011;4683;50.864;12.086;2022-07-29T14:48:20;4.50;;;4.10;;
9288;SDS011;4683;50.864;12.086;2022-07-29T14:50:48;6.90;;;4.43;;
9288;SDS011;4683;50.864;12.086;2022-07-29T14:53:16;3.43;;;3.13;;
9288;SDS011;4683;50.864;12.086;2022-07-29T14:55:45;3.63;;;3.30;;
9288;SDS011;4683;50.864;12.086;2022-07-29T14:58:14;4.17;;;3.77;;
9288;SDS011;4683;50.864;12.086;2022-07-29T15:00:44;5.57;;;4.27;;
9288;SDS011;4683;50.864;12.086;2022-07-29T15:03:13;3.87;;;3.47;;
9288;SDS011;4683;50.864;12.086;2022-07-29T15:05:41;4.53;;;3.13;;
9288;SDS011;4683;50.864;12.086;2022-07-29T15:08:10;5.97;;;4.10;;
9288;SDS011;4683;50.864;12.086;2022-07-29T15:10:38;4.23;;;3.57;;
9288;SDS011;4683;50.864;12.086;2022-07-29T15:13:07;5.47;;;4.60;;
9288;SDS011;4683;50.864;12.086;2022-07-29T15:15:35;4.20;;;3.80;;
9288;SDS011;4683;50.864;12.086;2022-07-29T15:18:06;3.83;;;3.53;;
9288;SDS011;4683;50.864;12.086;2022-07-29T15:20:35;4.03;;;2.87;;
9288;SDS011;4683;50.864;12.086;2022-07-29T15:23:05;4.17;;;3.73;;
9288;SDS011;4683;50.864;12.086;2022-07-29T15:25:39;5.83;;;4.10;;
9288;SDS011;4683;50.864;12.086;2022-07-29T15:28:12;5.53;;;4.27;;
9288;SDS011;4683;50.864;12.086;2022-07-29T15:30:41;5.00;;;3.97;;
9288;SDS011;4683;50.864;12.086;2022-07-29T15:33:14;5.63;;;4.20;;
9288;SDS011;4683;50.864;12.086;2022-07-29T15:35:42;5.97;;;4.30;;
9288;SDS011;4683;50.864;12.086;2022-07-29T15:38:15;4.30;;;3.90;;
9288;SDS011;4683;50.864;12.086;2022-07-29T15:40:45;3.83;;;3.40;;
9288;SDS011;4683;50.864;12.086;2022-07-29T15:43:15;5.37;;;3.80;;
9288;SDS011;4683;50.864;12.086;2022-07-29T15:45:47;4.73;;;3.50;;
9288;SDS011;4683;50.864;12.086;2022-07-29T15:48:37;4.53;;;3.80;;
9288;SDS011;4683;50.864;12.086;2022-07-29T15:51:26;3.87;;;3.57;;
9288;SDS011;4683;50.864;12.086;2022-07-29T15:54:12;3.47;;;3.23;;
9288;SDS011;4683;50.864;12.086;2022-07-29T15:56:46;3.17;;;2.97;;
9288;SDS011;4683;50.864;12.086;2022-07-29T15:59:15;3.67;;;3.30;;
9288;SDS011;4683;50.864;12.086;2022-07-29T16:01:43;3.90;;;3.60;;
9288;SDS011;4683;50.864;12.086;2022-07-29T16:04:17;5.40;;;3.63;;
9288;SDS011;4683;50.864;12.086;2022-07-29T16:06:45;4.20;;;3.23;;
9288;SDS011;4683;50.864;12.086;2022-07-29T16:09:16;3.50;;;3.30;;
9288;SDS011;4683;50.864;12.086;2022-07-29T16:11:45;3.80;;;3.40;;
9288;SDS011;4683;50.864;12.086;2022-07-29T16:14:15;4.00;;;3.70;;